CCW3 weather

Waterville / Kings County Municipal Airport
Waterville, Nova Scotia, Canada

Public forecast

Using degrees Celsius for public forecast. Weather courtesy of forecast.io.

METAR (pilot weather report)

Closest report is CFB Greenwood, 12.0 nm (22.2 km) WSW. Retrieved 2019/08/25 04:00 UTC (50 minutes ago):

CYZX 250400Z 04002KT 15SM SKC 11/09 A3034 RMK SLP274

TAF (pilot weather forecast)

Forecast is more than 12 hours old.

Closest forecast is CFB Greenwood, 12.0 nm (22.2 km) WSW. Retrieved 2019/08/24 00:33 UTC (1 day ago):

TAF CYZX 242330Z 2500/2524 02015KT P6SM BKN040 BECMG 2500/2501 04008KT FM250200 05005KT P6SM SCT030 FM250600 VRB03KT P6SM SKC BECMG 2512/2514 05008KT BECMG 2516/2518 05012KT BECMG 2523/2524 VRB03KT RMK NXT FCST BY 250600Z